createdAt,value
2022-09-29T00:01:27.593Z,21.21
2022-09-29T00:03:32.854Z,21.19
2022-09-29T00:06:29.385Z,21.19
2022-09-29T00:08:58.581Z,21.23
2022-09-29T00:11:29.024Z,21.23
2022-09-29T00:14:47.591Z,21.23
2022-09-29T00:17:15.242Z,21.21
2022-09-29T00:19:43.860Z,21.21
2022-09-29T00:22:29.523Z,21.19
2022-09-29T00:24:54.946Z,21.13
2022-09-29T00:27:00.184Z,21.07
2022-09-29T00:29:25.461Z,21.03
2022-09-29T00:31:47.659Z,21.00
2022-09-29T00:34:26.848Z,20.98
2022-09-29T00:36:52.154Z,20.92
2022-09-29T00:39:15.584Z,20.90
2022-09-29T00:41:35.104Z,20.89
2022-09-29T00:43:51.651Z,20.91
2022-09-29T00:46:58.003Z,20.91
2022-09-29T00:50:09.248Z,20.89
2022-09-29T00:53:16.657Z,20.87
2022-09-29T00:55:42.327Z,20.87
2022-09-29T00:58:06.850Z,20.87
2022-09-29T01:01:13.892Z,20.87
2022-09-29T01:04:14.474Z,20.88
2022-09-29T01:07:17.512Z,20.85
2022-09-29T01:10:25.346Z,20.83
2022-09-29T01:13:14.895Z,20.80
2022-09-29T01:20:05.208Z,20.77
2022-09-29T01:23:18.265Z,20.75
2022-09-29T01:26:24.674Z,20.71
2022-09-29T01:29:43.661Z,20.69
2022-09-29T01:32:55.515Z,20.67
2022-09-29T01:36:11.070Z,20.68
2022-09-29T01:39:15.813Z,20.67
2022-09-29T01:42:05.646Z,20.66
2022-09-29T01:44:32.277Z,20.65
2022-09-29T01:47:00.421Z,20.63
2022-09-29T01:50:05.914Z,20.63
2022-09-29T01:52:31.510Z,20.61
2022-09-29T01:55:42.563Z,20.60
2022-09-29T01:58:15.290Z,20.58
2022-09-29T02:00:54.843Z,20.54
2022-09-29T02:03:55.543Z,20.53
2022-09-29T02:06:28.108Z,20.52
2022-09-29T02:08:58.719Z,20.53
2022-09-29T02:11:21.063Z,20.53
2022-09-29T02:14:01.872Z,20.53
2022-09-29T02:16:32.133Z,20.54
2022-09-29T02:18:49.352Z,20.53
2022-09-29T02:20:54.673Z,20.52
2022-09-29T02:24:00.359Z,20.49
2022-09-29T02:26:52.974Z,20.46
2022-09-29T02:29:22.454Z,20.43
2022-09-29T02:32:03.256Z,20.41
2022-09-29T02:34:47.868Z,20.37
2022-09-29T02:37:48.806Z,20.32
2022-09-29T02:40:03.435Z,20.34
2022-09-29T02:42:46.107Z,20.33
2022-09-29T02:45:41.000Z,20.30
2022-09-29T02:48:09.955Z,20.29
2022-09-29T02:50:34.382Z,20.26
2022-09-29T02:52:49.139Z,20.23
2022-09-29T02:55:40.352Z,20.14
2022-09-29T02:58:33.855Z,20.15
2022-09-29T03:01:31.612Z,20.11
2022-09-29T03:04:17.068Z,20.07
2022-09-29T03:06:22.747Z,20.02
2022-09-29T03:08:57.080Z,19.99
2022-09-29T03:11:51.885Z,19.95
2022-09-29T03:14:17.540Z,19.91
2022-09-29T03:16:43.069Z,19.87
2022-09-29T03:19:38.188Z,19.90
2022-09-29T03:21:43.637Z,19.88
2022-09-29T03:24:09.093Z,19.86
2022-09-29T03:26:25.648Z,19.85
2022-09-29T03:28:44.352Z,19.84
2022-09-29T03:30:58.400Z,19.83
2022-09-29T03:33:14.448Z,19.81
2022-09-29T03:35:25.952Z,19.80
2022-09-29T03:37:31.600Z,19.79
2022-09-29T03:39:40.207Z,19.78
2022-09-29T03:41:45.458Z,19.74
2022-09-29T03:43:53.392Z,19.70
2022-09-29T03:45:58.795Z,19.65
2022-09-29T03:48:03.951Z,19.59
2022-09-29T03:50:09.284Z,19.55
2022-09-29T03:52:14.864Z,19.49
2022-09-29T03:54:26.738Z,19.46
2022-09-29T03:56:57.632Z,19.40
2022-09-29T03:59:04.439Z,19.31
2022-09-29T04:01:13.681Z,19.27
2022-09-29T04:03:24.470Z,19.22
2022-09-29T04:05:57.221Z,19.19
2022-09-29T04:09:01.431Z,19.13
2022-09-29T04:11:52.329Z,19.09
2022-09-29T04:14:51.025Z,19.04
2022-09-29T04:18:06.575Z,19.00
2022-09-29T04:20:55.107Z,18.97
2022-09-29T04:23:42.851Z,18.92
2022-09-29T04:26:41.373Z,18.88
2022-09-29T04:29:28.577Z,18.81
2022-09-29T04:32:07.002Z,18.73
2022-09-29T04:34:35.764Z,18.67
2022-09-29T04:37:14.380Z,18.64
2022-09-29T04:39:39.828Z,18.59
2022-09-29T04:42:15.664Z,18.55
2022-09-29T04:44:30.104Z,18.50
2022-09-29T04:46:45.716Z,18.47
2022-09-29T04:50:11.280Z,18.43
2022-09-29T04:53:26.616Z,18.38
2022-09-29T04:56:12.477Z,18.35
2022-09-29T04:58:30.148Z,18.32
2022-09-29T05:01:15.802Z,18.30
2022-09-29T05:04:05.871Z,18.29
2022-09-29T05:06:44.811Z,18.28
2022-09-29T05:09:32.411Z,18.22
2022-09-29T05:12:08.708Z,18.17
2022-09-29T05:15:15.572Z,18.14
2022-09-29T05:18:00.817Z,18.09
2022-09-29T05:21:16.181Z,18.08
2022-09-29T05:23:44.706Z,18.04
2022-09-29T05:27:11.081Z,18.01
2022-09-29T05:30:02.536Z,17.99
2022-09-29T05:33:13.656Z,17.94
2022-09-29T05:36:11.747Z,17.86
2022-09-29T05:39:31.132Z,17.74
2022-09-29T05:42:46.845Z,17.68
2022-09-29T05:45:32.299Z,17.66
2022-09-29T05:48:57.965Z,17.65
2022-09-29T05:52:23.920Z,17.62
2022-09-29T05:54:51.399Z,17.61
2022-09-29T05:57:28.487Z,17.60
2022-09-29T06:00:26.986Z,17.60
2022-09-29T06:02:42.351Z,17.58
2022-09-29T06:05:41.598Z,17.56
2022-09-29T06:07:57.613Z,17.53
2022-09-29T06:10:06.661Z,17.51
2022-09-29T06:12:22.419Z,17.50
2022-09-29T06:14:27.795Z,17.49
2022-09-29T06:16:34.871Z,17.47
2022-09-29T06:18:40.719Z,17.46
2022-09-29T06:20:48.077Z,17.42
2022-09-29T06:24:03.353Z,17.44
2022-09-29T06:26:54.062Z,17.43
2022-09-29T06:29:51.261Z,17.40
2022-09-29T06:32:06.978Z,17.39
2022-09-29T06:35:10.941Z,17.38
2022-09-29T06:37:49.541Z,17.35
2022-09-29T06:39:54.660Z,17.31
2022-09-29T06:42:10.063Z,17.28
2022-09-29T06:44:55.508Z,17.24
2022-09-29T06:47:17.516Z,17.21
2022-09-29T06:49:29.031Z,17.18
2022-09-29T06:51:44.969Z,17.20
2022-09-29T06:54:08.656Z,17.19
2022-09-29T06:56:25.309Z,17.19
2022-09-29T06:58:40.945Z,17.18
2022-09-29T07:00:49.905Z,17.13
2022-09-29T07:02:55.839Z,17.11
2022-09-29T07:05:11.150Z,17.13
2022-09-29T07:07:17.193Z,17.12
2022-09-29T07:09:23.659Z,17.12
2022-09-29T07:11:40.826Z,17.11
2022-09-29T07:13:45.919Z,17.11
2022-09-29T07:15:51.340Z,17.11
2022-09-29T07:18:47.915Z,17.10
2022-09-29T07:21:13.742Z,17.09
2022-09-29T07:24:02.504Z,17.08
2022-09-29T07:26:15.485Z,17.05
2022-09-29T07:29:21.041Z,17.07
2022-09-29T07:32:26.807Z,17.07
2022-09-29T07:35:39.594Z,17.07
2022-09-29T07:38:48.290Z,17.05
2022-09-29T07:42:09.333Z,17.07
2022-09-29T07:44:46.230Z,17.09
2022-09-29T07:47:31.792Z,17.10
2022-09-29T07:49:40.629Z,17.11
2022-09-29T07:52:37.333Z,17.13
2022-09-29T07:54:42.512Z,17.13
2022-09-29T07:56:47.717Z,17.14
2022-09-29T07:58:53.028Z,17.13
2022-09-29T08:00:58.533Z,17.13
2022-09-29T08:03:05.785Z,17.12
2022-09-29T08:05:11.249Z,17.12
2022-09-29T08:07:16.654Z,17.12
2022-09-29T08:09:28.157Z,17.11
2022-09-29T08:11:41.067Z,17.08
2022-09-29T08:13:46.579Z,17.09
2022-09-29T08:16:01.884Z,17.08
2022-09-29T08:18:11.495Z,17.08
2022-09-29T08:20:16.557Z,17.09
2022-09-29T08:22:21.264Z,17.10
2022-09-29T08:24:30.565Z,17.10
2022-09-29T08:26:44.016Z,17.08
2022-09-29T08:29:04.887Z,17.07
2022-09-29T08:31:23.398Z,17.08
2022-09-29T08:33:32.596Z,17.08
2022-09-29T08:35:37.632Z,17.06
2022-09-29T08:37:55.523Z,17.05
2022-09-29T08:40:00.458Z,17.04
2022-09-29T08:42:49.021Z,17.03
2022-09-29T08:45:11.709Z,17.05
2022-09-29T08:47:39.931Z,17.06
2022-09-29T08:50:15.630Z,17.07
2022-09-29T08:52:47.068Z,17.08
2022-09-29T08:55:21.638Z,17.09
2022-09-29T08:57:38.275Z,17.10
2022-09-29T08:59:43.479Z,17.08
2022-09-29T09:02:30.763Z,17.05
2022-09-29T09:04:43.539Z,17.05
2022-09-29T09:06:57.406Z,17.05
2022-09-29T09:09:32.962Z,17.02
2022-09-29T09:12:16.481Z,16.98
2022-09-29T09:14:39.519Z,16.96
2022-09-29T09:17:13.117Z,16.95
2022-09-29T09:19:30.350Z,16.95
2022-09-29T09:22:14.837Z,16.92
2022-09-29T09:24:37.370Z,16.92
2022-09-29T09:26:47.859Z,16.92
2022-09-29T09:29:20.681Z,16.91
2022-09-29T09:31:40.959Z,16.90
2022-09-29T09:34:17.055Z,16.88
2022-09-29T09:37:07.995Z,16.82
2022-09-29T09:40:01.630Z,16.78
2022-09-29T09:42:28.075Z,16.76
2022-09-29T09:45:27.613Z,16.74
2022-09-29T09:47:56.158Z,16.74
2022-09-29T09:50:25.952Z,16.68
2022-09-29T09:52:48.006Z,16.61
2022-09-29T09:55:02.087Z,16.58
2022-09-29T09:57:34.946Z,16.57
2022-09-29T10:00:21.756Z,16.54
2022-09-29T10:02:27.025Z,16.51
2022-09-29T10:04:34.266Z,16.49
2022-09-29T10:06:59.662Z,16.46
2022-09-29T10:09:14.859Z,16.43
2022-09-29T10:11:50.930Z,16.40
2022-09-29T10:14:10.674Z,16.38
2022-09-29T10:16:29.438Z,16.36
2022-09-29T10:18:57.810Z,16.34
2022-09-29T10:21:03.093Z,16.31
2022-09-29T10:23:29.269Z,16.31
2022-09-29T10:25:38.374Z,16.31
2022-09-29T10:27:54.374Z,16.30
2022-09-29T10:30:00.541Z,16.32
2022-09-29T10:32:15.296Z,16.32
2022-09-29T10:34:26.090Z,16.31
2022-09-29T10:36:47.274Z,16.31
2022-09-29T10:38:54.325Z,16.32
2022-09-29T10:41:09.346Z,16.30
2022-09-29T10:43:53.183Z,16.32
2022-09-29T10:46:00.116Z,16.33
2022-09-29T10:48:15.364Z,16.31
2022-09-29T10:50:23.922Z,16.31
2022-09-29T10:52:30.083Z,16.31
2022-09-29T10:54:41.398Z,16.31
2022-09-29T10:56:49.360Z,16.30
2022-09-29T10:59:01.748Z,16.31
2022-09-29T11:01:12.437Z,16.31
2022-09-29T11:03:24.495Z,16.30
2022-09-29T11:05:29.573Z,16.29
2022-09-29T11:07:35.068Z,16.29
2022-09-29T11:09:47.540Z,16.30
2022-09-29T11:12:04.024Z,16.29
2022-09-29T11:14:30.281Z,16.28
2022-09-29T11:16:39.168Z,16.27
2022-09-29T11:18:51.409Z,16.27
2022-09-29T11:21:27.224Z,16.28
2022-09-29T11:24:12.303Z,16.29
2022-09-29T11:26:30.979Z,16.30
2022-09-29T11:29:09.963Z,16.28
2022-09-29T11:31:44.488Z,16.31
2022-09-29T11:34:07.814Z,16.31
2022-09-29T11:36:30.587Z,16.30
2022-09-29T11:38:57.037Z,16.30
2022-09-29T11:41:42.680Z,16.29
2022-09-29T11:43:48.981Z,16.29
2022-09-29T11:46:27.173Z,16.29
2022-09-29T11:49:05.035Z,16.29
2022-09-29T11:51:25.177Z,16.30
2022-09-29T11:53:43.640Z,16.27
2022-09-29T11:56:34.108Z,16.27
2022-09-29T11:58:57.154Z,16.28
2022-09-29T12:01:16.653Z,16.29
2022-09-29T12:04:01.745Z,16.31
2022-09-29T12:06:38.450Z,16.32
2022-09-29T12:09:28.166Z,16.34
2022-09-29T12:12:18.892Z,16.37
2022-09-29T12:14:37.796Z,16.38
2022-09-29T12:16:54.375Z,16.38
2022-09-29T12:19:17.253Z,16.39
2022-09-29T12:21:43.476Z,16.38
2022-09-29T12:23:49.252Z,16.37
2022-09-29T12:25:59.205Z,16.37
2022-09-29T12:28:12.065Z,16.37
2022-09-29T12:30:23.818Z,16.37
2022-09-29T12:32:45.504Z,16.38
2022-09-29T12:34:56.431Z,16.39
2022-09-29T12:37:16.155Z,16.40
2022-09-29T12:39:48.461Z,16.40
2022-09-29T12:42:12.556Z,16.40
2022-09-29T12:44:44.046Z,16.40
2022-09-29T12:47:03.895Z,16.41
2022-09-29T12:49:32.125Z,16.41
2022-09-29T12:51:41.885Z,16.42
2022-09-29T12:54:14.544Z,16.42
2022-09-29T12:56:44.338Z,16.43
2022-09-29T12:58:55.461Z,16.44
2022-09-29T13:01:20.921Z,16.45
2022-09-29T13:03:58.043Z,16.45
2022-09-29T13:06:26.202Z,16.45
2022-09-29T13:09:21.651Z,16.44
2022-09-29T13:12:02.931Z,16.44
2022-09-29T13:14:42.659Z,16.46
2022-09-29T13:17:11.349Z,16.45
2022-09-29T13:19:58.819Z,16.43
2022-09-29T13:22:27.694Z,16.43
2022-09-29T13:24:42.868Z,16.43
2022-09-29T13:27:09.127Z,16.42
2022-09-29T13:29:22.331Z,16.40
2022-09-29T13:32:08.603Z,16.39
2022-09-29T13:34:33.676Z,16.37
2022-09-29T13:36:45.634Z,16.35
2022-09-29T13:39:00.418Z,16.30
2022-09-29T13:41:39.954Z,16.28
2022-09-29T13:43:50.626Z,16.26
2022-09-29T13:45:56.195Z,16.24
2022-09-29T13:48:33.994Z,16.24
2022-09-29T13:51:05.549Z,16.21
2022-09-29T13:53:34.910Z,16.18
2022-09-29T13:55:56.757Z,16.18
2022-09-29T13:58:05.444Z,16.17
2022-09-29T14:00:40.893Z,16.18
2022-09-29T14:03:05.780Z,16.18
2022-09-29T14:05:31.914Z,16.16
2022-09-29T14:08:11.657Z,16.15
2022-09-29T14:10:35.337Z,16.15
2022-09-29T14:12:42.213Z,16.15
2022-09-29T14:15:01.184Z,16.17
2022-09-29T14:17:47.864Z,16.18
2022-09-29T14:20:09.247Z,16.21
2022-09-29T14:22:32.672Z,16.23
2022-09-29T14:24:50.838Z,16.24
2022-09-29T14:27:16.183Z,16.26
2022-09-29T14:29:50.569Z,16.28
2022-09-29T14:31:58.463Z,16.29
2022-09-29T14:34:03.770Z,16.30
2022-09-29T14:36:15.759Z,16.30
2022-09-29T14:38:26.122Z,16.28
2022-09-29T14:40:31.337Z,16.27
2022-09-29T14:42:39.683Z,16.25
2022-09-29T14:45:05.754Z,16.25
2022-09-29T14:50:53.742Z,16.26
2022-09-29T14:53:17.208Z,16.27
2022-09-29T14:56:02.262Z,16.29
2022-09-29T14:58:19.873Z,16.32
2022-09-29T15:00:35.874Z,16.34
2022-09-29T15:03:00.032Z,16.36
2022-09-29T15:05:30.922Z,16.38
2022-09-29T15:07:52.729Z,16.39
2022-09-29T15:10:00.917Z,16.40
2022-09-29T15:12:16.423Z,16.40
2022-09-29T15:15:25.076Z,16.42
2022-09-29T15:17:46.122Z,16.42
2022-09-29T15:21:06.920Z,16.43
2022-09-29T15:23:22.166Z,16.45
2022-09-29T15:28:43.463Z,16.49
2022-09-29T15:30:55.103Z,16.50
2022-09-29T15:33:30.411Z,16.51
2022-09-29T15:36:02.461Z,16.51
2022-09-29T15:38:36.779Z,16.52
2022-09-29T15:41:05.019Z,16.54
2022-09-29T15:43:27.470Z,16.55
2022-09-29T15:46:11.927Z,16.57
2022-09-29T15:48:36.443Z,16.58
2022-09-29T15:50:45.536Z,16.60
2022-09-29T15:52:51.839Z,16.61
2022-09-29T15:55:20.760Z,16.62
2022-09-29T15:57:50.577Z,16.62
2022-09-29T16:00:18.172Z,16.62
2022-09-29T16:03:02.176Z,16.62
2022-09-29T16:05:45.510Z,16.63
2022-09-29T16:08:09.669Z,16.63
2022-09-29T16:10:26.856Z,16.64
2022-09-29T16:12:38.290Z,16.65
2022-09-29T16:15:04.770Z,16.67
2022-09-29T16:17:10.027Z,16.68
2022-09-29T16:19:27.217Z,16.70
2022-09-29T16:21:40.997Z,16.71
2022-09-29T16:23:55.863Z,16.71
2022-09-29T16:26:58.826Z,16.72
2022-09-29T16:29:45.335Z,16.73
2022-09-29T16:32:58.464Z,16.74
2022-09-29T16:35:41.202Z,16.74
2022-09-29T16:38:06.897Z,16.76
2022-09-29T16:40:33.719Z,16.77
2022-09-29T16:42:40.047Z,16.77
2022-09-29T16:44:51.953Z,16.78
2022-09-29T16:47:37.274Z,16.77
2022-09-29T16:50:12.410Z,16.76
2022-09-29T16:53:03.988Z,16.74
2022-09-29T16:55:28.236Z,16.73
2022-09-29T16:57:55.335Z,16.71
2022-09-29T17:00:51.488Z,16.70
2022-09-29T17:03:19.715Z,16.69
2022-09-29T17:06:00.034Z,16.69
2022-09-29T17:08:24.390Z,16.69
2022-09-29T17:10:30.260Z,16.68
2022-09-29T17:12:35.704Z,16.69
2022-09-29T17:14:54.872Z,16.69
2022-09-29T17:17:00.392Z,16.69
2022-09-29T17:19:17.508Z,16.70
2022-09-29T17:21:23.453Z,16.71
2022-09-29T17:23:37.510Z,16.71
2022-09-29T17:26:31.425Z,16.72
2022-09-29T17:29:11.980Z,16.75
2022-09-29T17:32:20.365Z,16.78
2022-09-29T17:35:13.080Z,16.80
2022-09-29T17:38:08.202Z,16.84
2022-09-29T17:40:45.135Z,16.87
2022-09-29T17:43:47.856Z,16.89
2022-09-29T17:46:21.871Z,16.91
2022-09-29T17:49:29.916Z,16.95
2022-09-29T17:51:59.875Z,16.97
2022-09-29T17:54:08.704Z,16.99
2022-09-29T17:56:22.384Z,17.01
2022-09-29T17:58:30.746Z,17.01
2022-09-29T18:00:39.102Z,17.01
2022-09-29T18:03:07.640Z,17.02
2022-09-29T18:05:29.194Z,17.05
2022-09-29T18:07:50.754Z,17.07
2022-09-29T18:11:08.865Z,17.11
2022-09-29T18:13:27.709Z,17.18
2022-09-29T18:15:32.839Z,17.22
2022-09-29T18:17:37.816Z,17.25
2022-09-29T18:19:46.266Z,17.27
2022-09-29T18:21:52.448Z,17.29
2022-09-29T18:23:58.230Z,17.31
2022-09-29T18:26:04.125Z,17.32
2022-09-29T18:28:17.052Z,17.32
2022-09-29T18:30:36.974Z,17.34
2022-09-29T18:32:41.759Z,17.35
2022-09-29T18:34:46.777Z,17.37
2022-09-29T18:36:51.805Z,17.38
2022-09-29T18:38:56.774Z,17.40
2022-09-29T18:41:23.876Z,17.41
2022-09-29T18:43:29.748Z,17.43
2022-09-29T18:45:38.900Z,17.47
2022-09-29T18:47:45.379Z,17.50
2022-09-29T18:49:50.634Z,17.54
2022-09-29T18:51:56.589Z,17.57
2022-09-29T18:54:42.141Z,17.60
2022-09-29T18:57:57.090Z,17.66
2022-09-29T19:00:58.082Z,17.70
2022-09-29T19:03:26.944Z,17.74
2022-09-29T19:05:52.815Z,17.78
2022-09-29T19:08:30.443Z,17.82
2022-09-29T19:10:37.000Z,17.86
2022-09-29T19:12:45.966Z,17.90
2022-09-29T19:17:02.904Z,17.95
2022-09-29T19:19:10.651Z,17.99
2022-09-29T19:21:16.713Z,18.02
2022-09-29T19:23:23.362Z,18.04
2022-09-29T19:25:30.770Z,18.09
2022-09-29T19:28:16.752Z,18.19
2022-09-29T19:31:02.899Z,18.41
2022-09-29T19:34:08.297Z,18.80
2022-09-29T19:36:48.396Z,19.22
2022-09-29T19:39:39.764Z,19.53
2022-09-29T19:41:55.903Z,19.72
2022-09-29T19:44:01.023Z,19.79
2022-09-29T19:46:35.419Z,19.84
2022-09-29T19:49:42.208Z,19.84
2022-09-29T19:52:23.905Z,19.82
2022-09-29T19:54:54.305Z,19.79
2022-09-29T19:57:41.734Z,19.77
2022-09-29T20:00:00.667Z,19.76
2022-09-29T20:02:46.711Z,19.77
2022-09-29T20:05:41.431Z,19.77
2022-09-29T20:08:38.216Z,19.84
2022-09-29T20:11:40.425Z,19.89
2022-09-29T20:13:55.296Z,19.94
2022-09-29T20:16:11.834Z,20.03
2022-09-29T20:18:28.547Z,20.10
2022-09-29T20:21:27.770Z,20.16
2022-09-29T20:23:33.094Z,20.26
2022-09-29T20:25:38.653Z,20.45
2022-09-29T20:28:01.577Z,20.63
2022-09-29T20:30:43.608Z,20.84
2022-09-29T20:34:04.019Z,21.16
2022-09-29T20:37:09.936Z,21.37
2022-09-29T20:39:40.950Z,21.58
2022-09-29T20:42:06.397Z,21.83
2022-09-29T20:44:12.258Z,22.03
2022-09-29T20:46:17.938Z,22.24
2022-09-29T20:48:23.344Z,22.36
2022-09-29T20:50:28.814Z,22.49
2022-09-29T20:53:26.058Z,22.62
2022-09-29T20:56:39.096Z,22.86
2022-09-29T20:59:38.884Z,23.00
2022-09-29T21:02:46.869Z,23.12
2022-09-29T21:05:37.073Z,23.41
2022-09-29T21:08:35.179Z,23.59
2022-09-29T21:11:41.714Z,23.68
2022-09-29T21:14:21.942Z,23.70
2022-09-29T21:16:27.155Z,23.67
2022-09-29T21:18:39.311Z,23.59
2022-09-29T21:21:25.546Z,23.49
2022-09-29T21:24:42.062Z,23.34
2022-09-29T21:28:05.850Z,23.21
2022-09-29T21:31:34.394Z,23.13
2022-09-29T21:34:59.654Z,23.15
2022-09-29T21:38:17.332Z,23.27
2022-09-29T21:41:30.534Z,23.38
2022-09-29T21:44:47.176Z,23.41
2022-09-29T21:47:50.351Z,23.57
2022-09-29T21:51:17.636Z,23.65
2022-09-29T21:54:25.857Z,23.67
2022-09-29T21:57:34.498Z,23.63
2022-09-29T22:00:42.895Z,23.54
2022-09-29T22:04:00.651Z,23.43
2022-09-29T22:07:18.873Z,23.34
2022-09-29T22:10:08.633Z,23.22
2022-09-29T22:13:33.867Z,23.16
2022-09-29T22:16:49.972Z,23.09
2022-09-29T22:20:09.215Z,23.03
2022-09-29T22:22:23.282Z,22.97
2022-09-29T22:25:08.558Z,22.95
2022-09-29T22:28:26.022Z,22.93
2022-09-29T22:31:20.905Z,22.91
2022-09-29T22:34:38.940Z,22.87
2022-09-29T22:37:54.121Z,22.84
2022-09-29T22:41:00.904Z,22.82
2022-09-29T22:43:40.619Z,22.80
2022-09-29T22:45:57.176Z,22.76
2022-09-29T22:48:55.738Z,22.75
2022-09-29T22:52:03.128Z,22.74
2022-09-29T22:55:29.620Z,22.73
2022-09-29T22:58:37.537Z,22.73
2022-09-29T23:01:48.815Z,22.75
2022-09-29T23:05:07.726Z,22.75
2022-09-29T23:08:15.595Z,22.82
2022-09-29T23:11:28.454Z,22.89
2022-09-29T23:14:34.196Z,22.96
2022-09-29T23:17:33.681Z,22.99
2022-09-29T23:20:29.038Z,23.08
2022-09-29T23:23:54.323Z,23.05
2022-09-29T23:27:19.477Z,23.02
2022-09-29T23:30:16.296Z,23.03
2022-09-29T23:33:31.426Z,23.05
2022-09-29T23:36:38.536Z,23.05
2022-09-29T23:39:37.036Z,23.10
2022-09-29T23:42:33.999Z,23.17
2022-09-29T23:45:59.265Z,23.21
2022-09-29T23:48:54.590Z,23.28
2022-09-29T23:52:20.253Z,23.33
2022-09-29T23:54:57.183Z,23.28
2022-09-29T23:57:32.606Z,23.22
